createdAt,value
2022-09-30T00:00:59.137Z,16.35
2022-09-30T00:03:25.909Z,15.23
2022-09-30T00:06:07.932Z,18.05
2022-09-30T00:08:35.607Z,11.32
2022-09-30T00:11:04.684Z,17.08
2022-09-30T00:13:32.618Z,16.50
2022-09-30T00:15:59.870Z,13.75
2022-09-30T00:18:29.993Z,14.70
2022-09-30T00:20:56.901Z,13.95
2022-09-30T00:23:23.945Z,11.27
2022-09-30T00:25:50.861Z,15.02
2022-09-30T00:28:18.134Z,11.05
2022-09-30T00:30:44.803Z,11.10
2022-09-30T00:33:11.598Z,11.55
2022-09-30T00:35:38.392Z,10.60
2022-09-30T00:38:05.155Z,13.05
2022-09-30T00:40:32.214Z,11.02
2022-09-30T00:43:00.105Z,12.38
2022-09-30T00:45:29.965Z,9.88
2022-09-30T00:48:02.525Z,11.18
2022-09-30T00:50:35.103Z,9.93
2022-09-30T00:53:13.094Z,15.10
2022-09-30T00:55:49.132Z,10.75
2022-09-30T00:58:45.041Z,12.30
2022-09-30T01:01:11.826Z,10.82
2022-09-30T01:03:41.062Z,11.02
2022-09-30T01:06:07.823Z,9.43
2022-09-30T01:08:37.501Z,11.27
2022-09-30T01:11:07.976Z,12.07
2022-09-30T01:13:35.316Z,10.23
2022-09-30T01:16:07.872Z,13.02
2022-09-30T01:18:50.993Z,12.75
2022-09-30T01:21:34.946Z,16.33
2022-09-30T01:24:15.578Z,9.27
2022-09-30T01:27:15.250Z,10.00
2022-09-30T01:29:41.986Z,8.10
2022-09-30T01:32:14.789Z,9.07
2022-09-30T01:35:04.721Z,9.20
2022-09-30T01:37:45.369Z,10.27
2022-09-30T01:40:22.698Z,8.98
2022-09-30T01:43:05.160Z,14.98
2022-09-30T01:45:44.655Z,7.65
2022-09-30T01:48:15.794Z,13.27
2022-09-30T01:51:06.306Z,13.82
2022-09-30T01:53:57.344Z,10.13
2022-09-30T01:56:29.612Z,9.55
2022-09-30T01:59:07.940Z,12.15
2022-09-30T02:02:08.489Z,9.98
2022-09-30T02:04:40.324Z,9.48
2022-09-30T02:07:10.493Z,8.43
2022-09-30T02:09:50.316Z,10.43
2022-09-30T02:12:20.107Z,7.10
2022-09-30T02:15:17.614Z,9.43
2022-09-30T02:17:49.430Z,13.85
2022-09-30T02:20:22.001Z,11.40
2022-09-30T02:22:50.662Z,10.88
2022-09-30T02:25:20.374Z,10.18
2022-09-30T02:27:50.844Z,11.95
2022-09-30T02:30:17.568Z,10.15
2022-09-30T02:32:50.496Z,10.02
2022-09-30T02:35:47.790Z,11.50
2022-09-30T02:38:23.154Z,6.80
2022-09-30T02:40:56.048Z,12.32
2022-09-30T02:43:22.744Z,10.25
2022-09-30T02:46:01.435Z,7.53
2022-09-30T02:48:37.987Z,10.00
2022-09-30T02:51:37.840Z,7.60
2022-09-30T02:54:29.119Z,10.40
2022-09-30T02:57:07.007Z,9.65
2022-09-30T02:59:33.719Z,10.20
2022-09-30T03:02:00.423Z,7.97
2022-09-30T03:04:29.196Z,10.93
2022-09-30T03:06:56.095Z,7.80
2022-09-30T03:09:27.059Z,8.65
2022-09-30T03:11:56.218Z,10.82
2022-09-30T03:14:25.863Z,8.23
2022-09-30T03:17:25.719Z,13.30
2022-09-30T03:20:12.609Z,9.98
2022-09-30T03:23:04.323Z,10.10
2022-09-30T03:25:38.094Z,9.00
2022-09-30T03:28:25.355Z,8.88
2022-09-30T03:31:18.362Z,6.55
2022-09-30T03:33:47.742Z,8.48
2022-09-30T03:36:26.450Z,14.15
2022-09-30T03:38:59.767Z,9.40
2022-09-30T03:41:47.462Z,7.03
2022-09-30T03:44:32.492Z,8.00
2022-09-30T03:47:01.529Z,9.85
2022-09-30T03:49:31.095Z,7.15
2022-09-30T03:51:58.787Z,12.20
2022-09-30T03:54:28.042Z,13.23
2022-09-30T03:56:54.772Z,8.85
2022-09-30T03:59:28.494Z,7.70
2022-09-30T04:01:57.022Z,7.15
2022-09-30T04:04:23.792Z,7.43
2022-09-30T04:06:51.021Z,9.52
2022-09-30T04:09:18.027Z,9.00
2022-09-30T04:11:44.820Z,8.35
2022-09-30T04:14:11.524Z,8.80
2022-09-30T04:16:38.246Z,9.57
2022-09-30T04:19:05.088Z,7.68
2022-09-30T04:21:31.836Z,11.75
2022-09-30T04:23:59.003Z,12.60
2022-09-30T04:26:26.324Z,8.77
2022-09-30T04:28:53.344Z,8.70
2022-09-30T04:31:21.236Z,8.02
2022-09-30T04:33:48.162Z,10.75
2022-09-30T04:36:15.029Z,12.05
2022-09-30T04:38:41.846Z,15.10
2022-09-30T04:41:09.825Z,10.45
2022-09-30T04:43:36.963Z,12.57
2022-09-30T04:46:03.751Z,11.98
2022-09-30T04:48:31.436Z,13.88
2022-09-30T04:51:00.049Z,17.20
2022-09-30T04:53:26.899Z,16.83
2022-09-30T04:56:01.650Z,22.35
2022-09-30T04:58:32.243Z,16.65
2022-09-30T05:01:12.220Z,13.23
2022-09-30T05:03:39.173Z,13.73
2022-09-30T05:06:06.122Z,12.68
2022-09-30T05:08:33.864Z,20.73
2022-09-30T05:11:02.230Z,16.05
2022-09-30T05:13:33.371Z,15.63
2022-09-30T05:16:00.281Z,24.45
2022-09-30T05:18:27.086Z,14.70
2022-09-30T05:20:54.287Z,16.00
2022-09-30T05:23:21.133Z,17.33
2022-09-30T05:25:48.061Z,15.95
2022-09-30T05:28:15.008Z,21.15
2022-09-30T05:30:44.462Z,20.45
2022-09-30T05:33:11.957Z,22.23
2022-09-30T05:35:40.124Z,24.17
2022-09-30T05:38:06.967Z,26.52
2022-09-30T05:40:33.722Z,28.90
2022-09-30T05:43:00.808Z,39.60
2022-09-30T05:45:27.577Z,27.95
2022-09-30T05:47:54.610Z,39.08
2022-09-30T05:50:22.057Z,39.58
2022-09-30T05:52:51.952Z,33.85
2022-09-30T05:55:19.379Z,32.60
2022-09-30T05:57:50.162Z,38.92
2022-09-30T06:00:17.260Z,44.63
2022-09-30T06:02:44.641Z,33.10
2022-09-30T06:05:11.821Z,40.08
2022-09-30T06:07:38.819Z,38.45
2022-09-30T06:10:07.926Z,34.75
2022-09-30T06:12:36.254Z,32.47
2022-09-30T06:15:03.257Z,31.58
2022-09-30T06:17:29.902Z,29.60
2022-09-30T06:19:56.845Z,41.25
2022-09-30T06:22:23.706Z,36.13
2022-09-30T06:24:54.858Z,30.95
2022-09-30T06:27:22.133Z,32.17
2022-09-30T06:29:49.349Z,31.17
2022-09-30T06:32:17.526Z,37.50
2022-09-30T06:34:44.912Z,29.70
2022-09-30T06:37:13.801Z,27.83
2022-09-30T06:39:42.216Z,49.20
2022-09-30T06:42:09.153Z,37.30
2022-09-30T06:44:46.926Z,35.72
2022-09-30T06:47:24.856Z,30.80
2022-09-30T06:49:53.352Z,22.95
2022-09-30T06:52:20.344Z,28.50
2022-09-30T06:54:47.338Z,23.67
2022-09-30T06:57:14.139Z,23.48
2022-09-30T06:59:40.997Z,28.48
2022-09-30T07:02:09.966Z,32.55
2022-09-30T07:04:36.796Z,22.80
2022-09-30T07:07:03.688Z,18.60
2022-09-30T07:09:30.533Z,28.25
2022-09-30T07:11:57.286Z,28.40
2022-09-30T07:14:24.084Z,23.02
2022-09-30T07:16:53.124Z,24.67
2022-09-30T07:19:23.324Z,22.50
2022-09-30T07:21:50.642Z,22.13
2022-09-30T07:24:17.916Z,27.10
2022-09-30T07:26:47.421Z,21.23
2022-09-30T07:29:14.216Z,22.45
2022-09-30T07:31:41.240Z,24.50
2022-09-30T07:34:08.780Z,21.73
2022-09-30T07:36:37.244Z,25.55
2022-09-30T07:39:05.968Z,20.88
2022-09-30T07:41:33.585Z,19.42
2022-09-30T07:44:00.635Z,22.27
2022-09-30T07:46:29.876Z,19.85
2022-09-30T07:49:00.551Z,22.05
2022-09-30T07:51:32.407Z,23.63
2022-09-30T07:54:01.347Z,20.42
2022-09-30T07:56:29.716Z,18.23
2022-09-30T07:59:03.901Z,21.75
2022-09-30T08:01:31.605Z,21.67
2022-09-30T08:04:00.964Z,18.38
2022-09-30T08:06:28.156Z,15.50
2022-09-30T08:08:55.674Z,20.90
2022-09-30T08:11:22.468Z,18.55
2022-09-30T08:13:53.404Z,17.65
2022-09-30T08:16:20.792Z,15.07
2022-09-30T08:18:47.710Z,18.23
2022-09-30T08:21:15.008Z,15.38
2022-09-30T08:23:42.055Z,18.13
2022-09-30T08:26:12.864Z,16.20
2022-09-30T08:28:39.881Z,15.15
2022-09-30T08:31:11.208Z,13.48
2022-09-30T08:33:38.682Z,16.70
2022-09-30T08:36:06.901Z,14.98
2022-09-30T08:38:34.074Z,13.95
2022-09-30T08:41:23.569Z,12.40
2022-09-30T08:44:02.631Z,12.93
2022-09-30T08:46:56.167Z,14.10
2022-09-30T08:49:49.762Z,18.23
2022-09-30T08:52:30.897Z,11.07
2022-09-30T08:55:21.037Z,9.07
2022-09-30T08:57:47.984Z,10.35
2022-09-30T09:00:17.254Z,7.32
2022-09-30T09:03:00.647Z,9.23
2022-09-30T09:05:42.448Z,10.90
2022-09-30T09:08:49.200Z,10.32
2022-09-30T09:11:47.936Z,8.75
2022-09-30T09:14:17.855Z,9.20
2022-09-30T09:16:58.672Z,10.52
2022-09-30T09:19:26.451Z,13.32
2022-09-30T09:21:53.809Z,11.13
2022-09-30T09:24:35.791Z,13.00
2022-09-30T09:27:03.502Z,9.52
2022-09-30T09:29:44.139Z,9.50
2022-09-30T09:32:17.473Z,13.07
2022-09-30T09:34:44.966Z,13.18
2022-09-30T09:37:22.819Z,10.77
2022-09-30T09:40:12.297Z,14.65
2022-09-30T09:43:10.125Z,11.43
2022-09-30T09:45:50.295Z,8.32
2022-09-30T09:48:17.450Z,18.27
2022-09-30T09:50:55.965Z,10.25
2022-09-30T09:53:22.699Z,10.77
2022-09-30T09:55:51.248Z,11.30
2022-09-30T09:58:17.945Z,9.95
2022-09-30T10:00:47.337Z,12.65
2022-09-30T10:03:20.512Z,11.82
2022-09-30T10:06:04.345Z,10.85
2022-09-30T10:08:33.362Z,10.77
2022-09-30T10:11:03.434Z,9.02
2022-09-30T10:13:32.077Z,9.82
2022-09-30T10:16:00.117Z,8.20
2022-09-30T10:18:32.772Z,10.98
2022-09-30T10:21:02.081Z,8.50
2022-09-30T10:23:30.070Z,5.65
2022-09-30T10:26:00.742Z,11.48
2022-09-30T10:28:29.884Z,6.68
2022-09-30T10:31:07.523Z,6.70
2022-09-30T10:33:48.497Z,6.43
2022-09-30T10:36:19.745Z,8.40
2022-09-30T10:39:07.150Z,8.10
2022-09-30T10:41:35.927Z,16.05
2022-09-30T10:44:07.990Z,5.15
2022-09-30T10:46:39.168Z,6.22
2022-09-30T10:49:41.724Z,6.13
2022-09-30T10:52:18.652Z,7.30
2022-09-30T10:55:20.856Z,6.47
2022-09-30T10:57:48.533Z,7.28
2022-09-30T11:00:21.830Z,7.90
2022-09-30T11:03:07.351Z,6.13
2022-09-30T11:05:36.072Z,9.15
2022-09-30T11:08:22.616Z,6.55
2022-09-30T11:11:14.126Z,10.75
2022-09-30T11:13:59.414Z,5.35
2022-09-30T11:16:52.905Z,7.30
2022-09-30T11:19:24.302Z,5.43
2022-09-30T11:21:58.610Z,5.25
2022-09-30T11:24:37.407Z,5.00
2022-09-30T11:27:43.365Z,6.13
2022-09-30T11:30:32.897Z,6.43
2022-09-30T11:33:18.219Z,5.82
2022-09-30T11:36:22.605Z,7.35
2022-09-30T11:38:58.386Z,9.00
2022-09-30T11:41:38.868Z,8.68
2022-09-30T11:44:30.597Z,3.33
2022-09-30T11:47:06.296Z,4.57
2022-09-30T11:49:40.210Z,5.57
2022-09-30T11:52:39.333Z,7.03
2022-09-30T11:55:15.363Z,5.07
2022-09-30T11:58:00.701Z,3.45
2022-09-30T12:00:29.256Z,3.88
2022-09-30T12:03:28.678Z,7.10
2022-09-30T12:05:57.527Z,4.18
2022-09-30T12:08:36.410Z,3.67
2022-09-30T12:11:08.707Z,2.85
2022-09-30T12:13:41.096Z,2.20
2022-09-30T12:16:14.478Z,5.80
2022-09-30T12:18:43.224Z,6.97
2022-09-30T12:21:23.633Z,2.47
2022-09-30T12:24:01.721Z,5.63
2022-09-30T12:26:28.721Z,4.68
2022-09-30T12:29:24.312Z,4.95
2022-09-30T12:32:01.880Z,2.33
2022-09-30T12:34:31.829Z,2.35
2022-09-30T12:37:02.302Z,2.10
2022-09-30T12:40:00.985Z,2.45
2022-09-30T12:42:46.021Z,1.75
2022-09-30T12:45:34.373Z,6.88
2022-09-30T12:48:08.164Z,5.05
2022-09-30T12:50:42.005Z,1.95
2022-09-30T12:53:17.664Z,4.57
2022-09-30T12:55:44.803Z,2.95
2022-09-30T12:58:32.754Z,2.95
2022-09-30T13:01:07.008Z,2.83
2022-09-30T13:03:52.457Z,2.13
2022-09-30T13:06:22.405Z,2.85
2022-09-30T13:09:26.152Z,2.80
2022-09-30T13:11:56.000Z,2.97
2022-09-30T13:14:44.477Z,4.63
2022-09-30T13:17:11.657Z,3.30
2022-09-30T13:19:41.036Z,1.80
2022-09-30T13:22:20.246Z,3.60
2022-09-30T13:25:00.452Z,9.88
2022-09-30T13:28:14.624Z,4.55
2022-09-30T13:30:41.890Z,3.60
2022-09-30T13:33:29.139Z,2.10
2022-09-30T13:35:58.527Z,1.63
2022-09-30T13:38:36.831Z,5.65
2022-09-30T13:41:09.366Z,3.10
2022-09-30T13:43:50.950Z,5.88
2022-09-30T13:46:43.432Z,3.25
2022-09-30T13:49:36.165Z,4.32
2022-09-30T13:52:03.172Z,5.80
2022-09-30T13:54:34.094Z,3.05
2022-09-30T13:57:01.276Z,5.85
2022-09-30T13:59:42.971Z,5.20
2022-09-30T14:02:38.401Z,4.78
2022-09-30T14:05:29.723Z,4.28
2022-09-30T14:08:30.254Z,2.25
2022-09-30T14:11:14.972Z,7.68
2022-09-30T14:14:06.068Z,4.28
2022-09-30T14:16:54.410Z,5.35
2022-09-30T14:19:52.494Z,4.25
2022-09-30T14:22:19.632Z,7.25
2022-09-30T14:24:46.343Z,4.90
2022-09-30T14:27:26.233Z,3.50
2022-09-30T14:29:58.807Z,5.00
2022-09-30T14:32:33.768Z,3.42
2022-09-30T14:35:01.722Z,6.03
2022-09-30T14:37:38.523Z,8.70
2022-09-30T14:40:12.351Z,7.38
2022-09-30T14:42:39.047Z,4.22
2022-09-30T14:45:06.200Z,13.52
2022-09-30T14:47:35.214Z,3.22
2022-09-30T14:50:02.597Z,4.43
2022-09-30T14:52:38.393Z,5.65
2022-09-30T14:55:17.116Z,6.80
2022-09-30T14:57:45.779Z,5.85
2022-09-30T15:00:20.046Z,5.97
2022-09-30T15:02:47.466Z,9.07
2022-09-30T15:05:14.594Z,4.53
2022-09-30T15:07:41.497Z,10.55
2022-09-30T15:10:17.324Z,6.30
2022-09-30T15:12:44.955Z,4.45
2022-09-30T15:15:34.153Z,5.43
2022-09-30T15:18:03.043Z,7.10
2022-09-30T15:20:35.862Z,7.00
2022-09-30T15:23:04.134Z,4.25
2022-09-30T15:25:30.882Z,11.70
2022-09-30T15:27:59.100Z,7.38
2022-09-30T15:30:29.284Z,5.05
2022-09-30T15:33:03.219Z,19.90
2022-09-30T15:35:30.000Z,9.95
2022-09-30T15:38:18.034Z,6.47
2022-09-30T15:40:49.874Z,7.13
2022-09-30T15:43:26.966Z,8.00
2022-09-30T15:45:55.227Z,6.35
2022-09-30T15:48:23.602Z,12.10
2022-09-30T15:50:53.148Z,5.90
2022-09-30T15:53:25.502Z,8.07
2022-09-30T15:55:53.448Z,10.05
2022-09-30T15:58:42.273Z,5.60
2022-09-30T16:01:45.358Z,11.30
2022-09-30T16:04:15.726Z,12.77
2022-09-30T16:07:08.155Z,10.02
2022-09-30T16:09:36.174Z,15.40
2022-09-30T16:12:13.348Z,6.22
2022-09-30T16:14:49.835Z,8.48
2022-09-30T16:17:40.233Z,7.03
2022-09-30T16:20:27.316Z,8.13
2022-09-30T16:22:55.042Z,7.97
2022-09-30T16:25:31.711Z,13.68
2022-09-30T16:28:02.047Z,6.65
2022-09-30T16:30:29.554Z,7.10
2022-09-30T16:32:58.225Z,8.10
2022-09-30T16:35:27.131Z,4.88
2022-09-30T16:38:04.997Z,9.95
2022-09-30T16:40:32.672Z,6.38
2022-09-30T16:43:00.020Z,7.05
2022-09-30T16:45:28.589Z,10.30
2022-09-30T16:47:56.328Z,14.88
2022-09-30T16:50:38.240Z,6.35
2022-09-30T16:53:05.092Z,7.35
2022-09-30T16:55:32.038Z,6.82
2022-09-30T16:57:59.132Z,15.55
2022-09-30T17:00:27.077Z,7.57
2022-09-30T17:02:53.906Z,9.00
2022-09-30T17:05:22.321Z,16.80
2022-09-30T17:07:53.966Z,10.85
2022-09-30T17:10:26.112Z,15.55
2022-09-30T17:12:53.543Z,5.07
2022-09-30T17:15:20.473Z,17.85
2022-09-30T17:17:47.344Z,8.55
2022-09-30T17:20:14.290Z,11.45
2022-09-30T17:22:41.237Z,7.85
2022-09-30T17:25:08.759Z,6.88
2022-09-30T17:27:35.456Z,13.50
2022-09-30T17:30:03.768Z,7.78
2022-09-30T17:32:30.680Z,9.07
2022-09-30T17:34:57.395Z,11.65
2022-09-30T17:37:24.187Z,10.80
2022-09-30T17:39:51.042Z,11.48
2022-09-30T17:42:36.714Z,9.32
2022-09-30T17:45:03.676Z,12.45
2022-09-30T17:47:30.609Z,9.90
2022-09-30T17:49:57.397Z,9.45
2022-09-30T17:52:25.170Z,11.48
2022-09-30T17:54:52.829Z,10.23
2022-09-30T17:57:20.737Z,5.00
2022-09-30T17:59:47.645Z,5.85
2022-09-30T18:02:17.488Z,7.85
2022-09-30T18:04:44.618Z,11.02
2022-09-30T18:07:12.680Z,3.45
2022-09-30T18:09:39.558Z,6.47
2022-09-30T18:12:07.495Z,4.50
2022-09-30T18:14:38.377Z,10.27
2022-09-30T18:17:05.811Z,6.22
2022-09-30T18:19:32.920Z,14.43
2022-09-30T18:21:59.616Z,5.82
2022-09-30T18:24:45.042Z,8.88
2022-09-30T18:27:11.899Z,6.32
2022-09-30T18:29:38.687Z,9.02
2022-09-30T18:32:05.999Z,9.95
2022-09-30T18:34:33.387Z,8.68
2022-09-30T18:37:04.038Z,7.05
2022-09-30T18:39:39.917Z,7.07
2022-09-30T18:42:06.666Z,4.30
2022-09-30T18:44:37.419Z,6.45
2022-09-30T18:47:05.083Z,5.75
2022-09-30T18:49:32.034Z,6.00
2022-09-30T18:51:59.886Z,14.43
2022-09-30T18:54:26.677Z,9.73
2022-09-30T18:56:53.458Z,12.18
2022-09-30T18:59:23.251Z,4.80
2022-09-30T19:01:51.067Z,3.83
2022-09-30T19:04:17.990Z,3.45
2022-09-30T19:06:45.353Z,4.05
2022-09-30T19:09:12.509Z,5.50
2022-09-30T19:11:43.095Z,5.72
2022-09-30T19:14:14.477Z,9.30
2022-09-30T19:16:41.991Z,4.97
2022-09-30T19:19:10.562Z,4.90
2022-09-30T19:21:38.295Z,4.95
2022-09-30T19:24:06.254Z,2.95
2022-09-30T19:26:34.101Z,1.00
2022-09-30T19:29:01.100Z,5.35
2022-09-30T19:31:28.518Z,3.05
2022-09-30T19:33:58.282Z,1.92
2022-09-30T19:36:26.768Z,3.05
2022-09-30T19:39:05.950Z,2.08
2022-09-30T19:41:35.776Z,3.53
2022-09-30T19:44:02.925Z,2.72
2022-09-30T19:46:29.680Z,2.30
2022-09-30T19:48:56.560Z,2.22
2022-09-30T19:51:23.728Z,3.42
2022-09-30T19:54:03.272Z,3.92
2022-09-30T19:56:33.615Z,4.72
2022-09-30T19:59:00.674Z,3.60
2022-09-30T20:01:31.348Z,2.13
2022-09-30T20:04:00.251Z,2.58
2022-09-30T20:06:28.176Z,4.40
2022-09-30T20:09:00.012Z,2.65
2022-09-30T20:11:28.691Z,0.60
2022-09-30T20:14:14.880Z,3.22
2022-09-30T20:16:42.122Z,1.92
2022-09-30T20:19:09.206Z,2.83
2022-09-30T20:21:37.936Z,9.88
2022-09-30T20:24:05.506Z,3.65
2022-09-30T20:26:34.216Z,1.45
2022-09-30T20:29:01.118Z,1.83
2022-09-30T20:31:28.327Z,3.47
2022-09-30T20:33:59.062Z,1.65
2022-09-30T20:36:26.674Z,2.25
2022-09-30T20:38:54.080Z,1.27
2022-09-30T20:41:20.780Z,3.33
2022-09-30T20:43:53.788Z,1.35
2022-09-30T20:46:21.309Z,2.17
2022-09-30T20:48:48.401Z,0.85
2022-09-30T20:51:17.592Z,1.27
2022-09-30T20:53:48.827Z,2.95
2022-09-30T20:56:15.801Z,1.73
2022-09-30T20:58:43.239Z,1.45
2022-09-30T21:01:12.124Z,1.25
2022-09-30T21:03:39.079Z,0.43
2022-09-30T21:06:12.067Z,0.35
2022-09-30T21:08:39.461Z,2.33
2022-09-30T21:11:07.399Z,2.92
2022-09-30T21:13:35.324Z,1.17
2022-09-30T21:16:04.111Z,0.47
2022-09-30T21:18:31.034Z,0.55
2022-09-30T21:20:58.907Z,1.35
2022-09-30T21:23:26.593Z,1.23
2022-09-30T21:26:07.025Z,4.07
2022-09-30T21:28:33.812Z,1.75
2022-09-30T21:31:13.091Z,2.22
2022-09-30T21:33:40.268Z,3.03
2022-09-30T21:36:07.076Z,1.38
2022-09-30T21:38:34.217Z,0.80
2022-09-30T21:41:02.418Z,0.50
2022-09-30T21:43:32.621Z,1.00
2022-09-30T21:46:00.117Z,3.10
2022-09-30T21:48:27.262Z,2.20
2022-09-30T21:50:54.562Z,5.13
2022-09-30T21:53:27.427Z,0.75
2022-09-30T21:55:54.953Z,2.27
2022-09-30T21:58:23.904Z,0.55
2022-09-30T22:00:51.082Z,0.88
2022-09-30T22:03:17.901Z,1.13
2022-09-30T22:05:53.989Z,4.75
2022-09-30T22:08:21.210Z,4.57
2022-09-30T22:10:48.866Z,1.08
2022-09-30T22:13:15.764Z,0.75
2022-09-30T22:15:45.944Z,1.67
2022-09-30T22:18:17.318Z,9.82
2022-09-30T22:20:44.625Z,2.03
2022-09-30T22:23:11.596Z,2.38
2022-09-30T22:25:38.491Z,1.90
2022-09-30T22:28:05.376Z,1.73
2022-09-30T22:30:32.465Z,2.28
2022-09-30T22:33:17.620Z,5.20
2022-09-30T22:36:03.068Z,4.00
2022-09-30T22:38:29.964Z,6.10
2022-09-30T22:40:56.765Z,3.05
2022-09-30T22:43:24.503Z,2.33
2022-09-30T22:46:06.992Z,2.92
2022-09-30T22:48:34.034Z,2.90
2022-09-30T22:51:00.902Z,2.42
2022-09-30T22:53:27.845Z,7.60
2022-09-30T22:55:54.724Z,3.65
2022-09-30T22:58:24.227Z,7.38
2022-09-30T23:00:55.181Z,6.20
2022-09-30T23:03:22.248Z,3.20
2022-09-30T23:05:50.102Z,2.95
2022-09-30T23:08:25.308Z,5.07
2022-09-30T23:10:52.145Z,6.57
2022-09-30T23:13:20.154Z,8.20
2022-09-30T23:15:47.775Z,3.85
2022-09-30T23:18:17.126Z,7.00
2022-09-30T23:20:54.205Z,8.52
2022-09-30T23:23:20.905Z,6.45
2022-09-30T23:25:47.572Z,11.07
2022-09-30T23:28:14.348Z,3.28
2022-09-30T23:30:41.344Z,5.43
2022-09-30T23:33:10.000Z,7.65
2022-09-30T23:35:36.774Z,5.97
2022-09-30T23:38:03.474Z,7.13
2022-09-30T23:40:31.464Z,7.88
2022-09-30T23:42:58.193Z,9.70
2022-09-30T23:45:24.951Z,5.45
2022-09-30T23:47:51.690Z,8.25
2022-09-30T23:50:18.432Z,8.13
2022-09-30T23:52:45.177Z,7.75
2022-09-30T23:55:12.460Z,7.75
2022-09-30T23:57:39.874Z,13.82
